Time;durP1;ratioP1;P1;durP2;ratioP2;P2;SDS_P1;SDS_P2;PMS_P1;PMS_P2;Temp;Humidity;BMP_temperature;BMP_pressure;BME280_temperature;BME280_humidity;BME280_pressure;Samples;Min_cycle;Max_cycle;Signal;HPM_P1;HPM_P2
2023/01/03 00:01:47;;;;;;;9.32;5.78;;;7.00;99.90;;;;;;6161532;23;20081;-68
2023/01/03 00:04:14;;;;;;;11.95;5.97;;;7.00;99.90;;;;;;6160095;23;20001;-68
2023/01/03 00:06:49;;;;;;;10.30;6.38;;;7.00;99.90;;;;;;6161861;23;19998;-68
2023/01/03 00:09:19;;;;;;;11.95;6.07;;;7.00;99.90;;;;;;6161218;23;20009;-68
2023/01/03 00:14:36;;;;;;;10.88;6.40;;;6.90;99.90;;;;;;6161779;23;20016;-68
2023/01/03 00:17:05;;;;;;;13.60;6.72;;;6.90;99.90;;;;;;6161837;23;20060;-68
2023/01/03 00:19:37;;;;;;;12.05;6.47;;;6.90;99.90;;;;;;6159809;23;20006;-68
2023/01/03 00:22:05;;;;;;;12.02;5.90;;;6.80;99.90;;;;;;6161407;23;20085;-68
2023/01/03 00:24:32;;;;;;;11.60;6.35;;;6.80;99.90;;;;;;6161293;23;19998;-68
2023/01/03 00:27:00;;;;;;;13.25;6.38;;;6.70;99.90;;;;;;6160985;23;20005;-68
2023/01/03 00:29:27;;;;;;;15.45;6.47;;;6.70;99.90;;;;;;6159526;23;20098;-68
2023/01/03 00:31:54;;;;;;;15.90;6.72;;;6.70;99.90;;;;;;6161034;23;20374;-68
2023/01/03 00:34:22;;;;;;;13.57;6.97;;;6.70;99.90;;;;;;6161792;23;20072;-68
2023/01/03 00:36:49;;;;;;;12.07;6.72;;;6.70;99.90;;;;;;6161000;23;20040;-68
2023/01/03 00:39:16;;;;;;;14.40;6.65;;;6.70;99.90;;;;;;6161671;23;20421;-68
2023/01/03 00:41:44;;;;;;;14.52;7.18;;;6.70;99.90;;;;;;6161214;23;20382;-68
2023/01/03 00:44:11;;;;;;;11.57;7.43;;;6.70;99.90;;;;;;6161077;23;20284;-68
2023/01/03 00:46:39;;;;;;;15.90;7.38;;;6.70;99.90;;;;;;6161238;23;20004;-68
2023/01/03 00:49:06;;;;;;;11.27;6.32;;;6.60;99.90;;;;;;6160403;23;20008;-68
2023/01/03 00:51:35;;;;;;;13.93;7.13;;;6.60;99.90;;;;;;6160875;23;20006;-68
2023/01/03 00:54:04;;;;;;;12.43;7.03;;;6.60;99.90;;;;;;6159653;23;20015;-68
2023/01/03 00:56:37;;;;;;;12.80;6.90;;;6.50;99.90;;;;;;6160805;23;20009;-68
2023/01/03 00:59:05;;;;;;;13.90;7.63;;;6.50;99.90;;;;;;6159457;23;20410;-68
2023/01/03 01:01:51;;;;;;;15.02;7.97;;;6.40;99.90;;;;;;6161379;23;20414;-68
2023/01/03 01:04:22;;;;;;;14.27;7.43;;;6.40;99.90;;;;;;6160607;23;20005;-68
2023/01/03 01:07:01;;;;;;;12.65;7.78;;;6.40;99.90;;;;;;6161173;23;20002;-68
2023/01/03 01:09:31;;;;;;;10.93;7.10;;;6.40;99.90;;;;;;6160696;23;20263;-68
2023/01/03 01:11:58;;;;;;;16.30;9.15;;;6.30;99.90;;;;;;6160953;23;20362;-68
2023/01/03 01:14:28;;;;;;;17.40;8.88;;;6.40;99.90;;;;;;6160594;23;20009;-68
2023/01/03 01:17:01;;;;;;;17.88;8.02;;;6.40;99.90;;;;;;6159296;23;20005;-68
2023/01/03 01:19:34;;;;;;;18.30;8.63;;;6.40;99.90;;;;;;6159143;23;20117;-68
2023/01/03 01:22:02;;;;;;;17.35;8.68;;;6.40;99.90;;;;;;6161083;23;20002;-68
2023/01/03 01:24:30;;;;;;;18.80;9.35;;;6.50;99.90;;;;;;6160655;23;20009;-68
2023/01/03 01:26:57;;;;;;;14.73;7.85;;;6.50;99.90;;;;;;6160816;23;20081;-68
2023/01/03 01:29:24;;;;;;;15.30;8.10;;;6.60;99.90;;;;;;6159689;23;20008;-69
2023/01/03 01:31:51;;;;;;;20.08;9.38;;;6.60;99.90;;;;;;6159284;23;20036;-68
2023/01/03 01:34:18;;;;;;;18.00;8.45;;;6.60;99.90;;;;;;6159230;23;20022;-68
2023/01/03 01:36:47;;;;;;;17.58;9.38;;;6.60;99.90;;;;;;6159598;23;20012;-68
2023/01/03 01:39:21;;;;;;;14.93;9.30;;;6.50;99.90;;;;;;6159129;23;20009;-68
2023/01/03 01:44:55;;;;;;;18.38;9.30;;;6.60;99.90;;;;;;6160556;23;20125;-68
2023/01/03 01:47:38;;;;;;;22.60;9.52;;;6.60;99.90;;;;;;6158951;23;20063;-68
2023/01/03 01:50:09;;;;;;;19.40;9.40;;;6.60;99.90;;;;;;6160218;23;20005;-68
2023/01/03 01:52:42;;;;;;;17.10;9.75;;;6.60;99.90;;;;;;6160990;23;20125;-68
2023/01/03 01:55:16;;;;;;;15.73;9.07;;;6.70;99.90;;;;;;6159102;23;20084;-68
2023/01/03 01:57:44;;;;;;;15.73;9.63;;;6.70;99.90;;;;;;6160250;23;20005;-68
2023/01/03 02:00:11;;;;;;;16.05;9.02;;;6.70;99.90;;;;;;6160220;23;20368;-68
2023/01/03 02:02:39;;;;;;;17.50;10.40;;;6.60;99.90;;;;;;6158807;23;20370;-68
2023/01/03 02:05:08;;;;;;;16.77;10.18;;;6.60;99.90;;;;;;6159484;23;20024;-68
2023/01/03 02:07:37;;;;;;;18.35;9.60;;;6.60;99.90;;;;;;6158790;23;20028;-68
2023/01/03 02:10:05;;;;;;;18.00;11.27;;;6.60;99.90;;;;;;6160120;23;20002;-68
2023/01/03 02:13:05;;;;;;;18.23;11.00;;;6.60;99.90;;;;;;6160190;23;20008;-68
2023/01/03 02:16:17;;;;;;;19.85;10.48;;;6.60;99.90;;;;;;6159996;23;20383;-68
2023/01/03 02:19:21;;;;;;;19.63;10.68;;;6.60;99.90;;;;;;6041873;23;20008;-68
2023/01/03 02:22:25;;;;;;;20.77;10.43;;;6.60;99.90;;;;;;6159854;23;20005;-68
2023/01/03 02:25:22;;;;;;;22.42;11.52;;;6.60;99.90;;;;;;6160143;23;20005;-68
2023/01/03 02:28:11;;;;;;;18.92;10.48;;;6.60;99.90;;;;;;6159923;23;20008;-68
2023/01/03 02:30:41;;;;;;;19.48;10.18;;;6.70;99.90;;;;;;6159914;23;20021;-68
2023/01/03 02:33:22;;;;;;;21.05;11.02;;;6.70;99.90;;;;;;6158690;23;20005;-68
2023/01/03 02:36:12;;;;;;;20.52;11.60;;;6.70;99.90;;;;;;6159924;23;20004;-68
2023/01/03 02:38:53;;;;;;;20.65;10.82;;;6.70;99.90;;;;;;6160061;23;20002;-68
2023/01/03 02:41:23;;;;;;;21.40;12.02;;;6.70;99.90;;;;;;6160495;23;20013;-68
2023/01/03 02:44:15;;;;;;;19.05;10.38;;;6.70;99.90;;;;;;6160636;23;20056;-68
2023/01/03 02:46:48;;;;;;;18.35;11.10;;;6.70;99.90;;;;;;6160193;23;20381;-68
2023/01/03 02:49:19;;;;;;;21.45;11.75;;;6.70;99.90;;;;;;6159848;23;20379;-68
2023/01/03 02:51:53;;;;;;;20.75;11.63;;;6.70;99.90;;;;;;6160547;23;20076;-68
2023/01/03 02:54:47;;;;;;;21.17;11.82;;;6.70;99.90;;;;;;6158542;23;20044;-68
2023/01/03 02:57:31;;;;;;;22.75;12.43;;;6.70;99.90;;;;;;6115929;23;20010;-68
2023/01/03 03:00:07;;;;;;;22.48;11.77;;;6.70;99.90;;;;;;6160343;23;20012;-68
2023/01/03 03:02:36;;;;;;;22.63;12.27;;;6.60;99.90;;;;;;6160459;23;20351;-68
2023/01/03 03:05:11;;;;;;;22.55;12.10;;;6.60;99.90;;;;;;6159825;23;19997;-68
2023/01/03 03:07:40;;;;;;;23.27;12.32;;;6.60;99.90;;;;;;6159823;23;20025;-68
2023/01/03 03:13:14;;;;;;;22.65;12.02;;;6.50;99.90;;;;;;6159894;23;20012;-68
2023/01/03 03:16:10;;;;;;;19.85;11.80;;;6.50;99.90;;;;;;6159744;23;20001;-68
2023/01/03 03:18:47;;;;;;;20.83;11.82;;;6.40;99.90;;;;;;6160000;23;20208;-68
2023/01/03 03:30:00;;;;;;;20.17;11.50;;;6.40;99.90;;;;;;6161659;23;20020;-68
2023/01/03 03:32:31;;;;;;;18.60;10.93;;;6.40;99.90;;;;;;6161612;23;20006;-68
2023/01/03 03:35:01;;;;;;;16.58;10.80;;;6.40;99.90;;;;;;6161978;23;20056;-68
2023/01/03 03:37:35;;;;;;;26.17;11.52;;;6.40;99.90;;;;;;6161372;23;20026;-68
2023/01/03 03:46:06;;;;;;;20.38;10.68;;;6.30;99.90;;;;;;6161865;23;19944;-68
2023/01/03 03:51:48;;;;;;;19.67;10.30;;;6.40;99.90;;;;;;6161789;23;20132;-68
2023/01/03 03:54:20;;;;;;;19.35;9.77;;;6.40;99.90;;;;;;6161606;23;20001;-68
2023/01/03 03:56:59;;;;;;;17.48;8.88;;;6.30;99.90;;;;;;6160053;23;20084;-68
2023/01/03 03:59:28;;;;;;;26.00;12.25;;;6.40;99.90;;;;;;6161376;23;20005;-68
2023/01/03 04:01:58;;;;;;;25.55;13.93;;;6.30;99.90;;;;;;6159882;23;20013;-68
2023/01/03 04:04:33;;;;;;;26.83;12.80;;;6.30;99.90;;;;;;6160022;23;20059;-68
2023/01/03 04:07:01;;;;;;;27.13;12.70;;;6.20;99.90;;;;;;6161310;23;20072;-68
2023/01/03 04:09:29;;;;;;;25.48;12.68;;;6.20;99.90;;;;;;6159998;23;20005;-68
2023/01/03 04:11:56;;;;;;;23.15;11.15;;;6.20;99.90;;;;;;6161904;23;20032;-68
2023/01/03 04:14:23;;;;;;;15.68;8.20;;;6.20;99.90;;;;;;6161304;23;20009;-68
2023/01/03 04:16:51;;;;;;;16.52;6.47;;;6.10;99.90;;;;;;6161255;23;20270;-68
2023/01/03 04:19:18;;;;;;;15.75;6.25;;;6.00;99.90;;;;;;6161799;23;20084;-68
2023/01/03 04:21:46;;;;;;;16.15;7.50;;;5.90;99.90;;;;;;6161082;23;20339;-68
2023/01/03 04:24:13;;;;;;;13.20;6.95;;;5.80;99.90;;;;;;6162034;23;20001;-68
2023/01/03 04:26:41;;;;;;;17.95;8.75;;;5.80;99.90;;;;;;6160558;23;20006;-68
2023/01/03 04:29:08;;;;;;;13.73;7.22;;;5.70;99.90;;;;;;6161833;23;20005;-68
2023/01/03 04:31:35;;;;;;;15.35;7.93;;;5.70;99.90;;;;;;6161006;23;20020;-68
2023/01/03 04:34:02;;;;;;;15.85;8.70;;;5.70;99.90;;;;;;6161278;23;20019;-68
2023/01/03 04:36:30;;;;;;;12.25;6.25;;;5.70;99.90;;;;;;6135110;23;20100;-68
2023/01/03 04:38:57;;;;;;;18.83;8.95;;;5.70;99.90;;;;;;6160856;23;20009;-68
2023/01/03 04:41:24;;;;;;;15.77;7.18;;;5.70;99.90;;;;;;6161570;23;20005;-68
2023/01/03 04:44:01;;;;;;;13.48;7.93;;;5.70;99.90;;;;;;6161045;23;20002;-68
2023/01/03 04:46:31;;;;;;;13.75;6.80;;;5.80;99.90;;;;;;6160709;23;20001;-68
2023/01/03 04:48:58;;;;;;;11.70;5.82;;;5.70;99.90;;;;;;6160797;23;20308;-68
2023/01/03 04:51:26;;;;;;;12.13;5.85;;;5.70;99.90;;;;;;6161093;23;20063;-68
2023/01/03 04:53:53;;;;;;;13.65;6.22;;;5.70;99.90;;;;;;6159489;23;20010;-68
2023/01/03 04:56:32;;;;;;;13.48;6.22;;;5.70;99.90;;;;;;6160716;23;20013;-68
2023/01/03 04:59:00;;;;;;;8.27;4.60;;;5.60;99.90;;;;;;6161098;23;20033;-68
2023/01/03 05:01:28;;;;;;;8.88;5.38;;;5.60;99.90;;;;;;6160655;23;20015;-68
2023/01/03 05:04:02;;;;;;;13.05;4.22;;;5.60;99.90;;;;;;6160792;23;20274;-68
2023/01/03 05:06:29;;;;;;;8.18;4.53;;;5.60;99.90;;;;;;6160649;23;20006;-68
2023/01/03 05:08:56;;;;;;;8.50;4.28;;;5.50;99.90;;;;;;6159683;23;20051;-68
2023/01/03 05:11:24;;;;;;;9.27;4.80;;;5.50;99.90;;;;;;6161354;23;20009;-68
2023/01/03 05:13:51;;;;;;;13.52;5.18;;;5.40;99.90;;;;;;6159351;23;20383;-68
2023/01/03 05:16:18;;;;;;;8.77;5.10;;;5.30;99.90;;;;;;6160646;23;20275;-68
2023/01/03 05:18:47;;;;;;;11.50;5.95;;;5.20;99.90;;;;;;6160250;23;20001;-68
2023/01/03 05:26:49;;;;;;;14.57;7.50;;;5.00;99.90;;;;;;6159899;23;20076;-68
2023/01/03 05:29:20;;;;;;;14.95;7.32;;;5.00;99.90;;;;;;6160689;23;20439;-68
2023/01/03 05:31:48;;;;;;;15.68;8.20;;;5.00;99.90;;;;;;6160288;23;20021;-68
2023/01/03 05:34:15;;;;;;;15.88;8.48;;;5.00;99.90;;;;;;6159072;23;20012;-68
2023/01/03 05:36:42;;;;;;;22.70;10.25;;;5.00;99.90;;;;;;6160318;23;20005;-68
2023/01/03 05:39:10;;;;;;;24.27;11.73;;;5.10;99.90;;;;;;6159274;23;20037;-68
2023/01/03 05:44:23;;;;;;;26.75;12.95;;;5.20;99.90;;;;;;6160709;23;20060;-68
2023/01/03 05:46:51;;;;;;;33.88;14.45;;;5.30;99.90;;;;;;6158973;23;20005;-68
2023/01/03 05:49:18;;;;;;;36.03;14.55;;;5.30;99.90;;;;;;6160343;23;20009;-68
2023/01/03 05:51:45;;;;;;;32.25;14.93;;;5.40;99.90;;;;;;6160397;23;20008;-69
2023/01/03 05:54:15;;;;;;;30.20;15.23;;;5.40;99.90;;;;;;6160289;23;20002;-68
2023/01/03 05:56:43;;;;;;;28.40;15.80;;;5.50;99.90;;;;;;6160108;23;20342;-69
2023/01/03 05:59:11;;;;;;;34.05;14.38;;;5.60;99.90;;;;;;6159891;23;20001;-69
2023/01/03 06:01:38;;;;;;;28.77;14.25;;;5.60;99.90;;;;;;6158756;23;20009;-68
2023/01/03 06:04:06;;;;;;;36.80;14.60;;;5.60;99.90;;;;;;6160167;23;20008;-68
2023/01/03 06:06:33;;;;;;;26.00;13.70;;;5.70;99.90;;;;;;6160073;23;19997;-68
2023/01/03 06:09:01;;;;;;;24.15;13.65;;;5.70;99.90;;;;;;6160869;23;19997;-68
2023/01/03 06:11:28;;;;;;;24.92;12.85;;;5.70;99.90;;;;;;6158795;23;20013;-68
2023/01/03 06:13:55;;;;;;;26.02;12.98;;;5.70;99.90;;;;;;6161273;23;20006;-68
2023/01/03 06:19:08;;;;;;;25.13;12.55;;;5.80;99.90;;;;;;6160494;23;20193;-68
2023/01/03 06:21:36;;;;;;;23.20;11.93;;;5.80;99.90;;;;;;6159926;23;20010;-68
2023/01/03 06:24:04;;;;;;;21.38;11.13;;;5.80;99.90;;;;;;6158852;23;20427;-68
2023/01/03 06:26:31;;;;;;;26.33;13.43;;;5.80;99.90;;;;;;6160686;23;20025;-68
2023/01/03 06:29:00;;;;;;;25.85;13.45;;;5.80;99.90;;;;;;6158643;23;20279;-68
2023/01/03 06:31:28;;;;;;;25.67;12.93;;;5.90;99.90;;;;;;6159840;23;20055;-68
2023/01/03 06:33:55;;;;;;;24.25;12.60;;;5.80;99.90;;;;;;6158820;23;20378;-68
2023/01/03 06:36:25;;;;;;;27.13;13.98;;;5.80;99.90;;;;;;6159817;23;20071;-68
2023/01/03 06:38:52;;;;;;;27.48;14.75;;;5.80;99.90;;;;;;6159954;23;20013;-68
2023/01/03 06:41:20;;;;;;;28.60;13.93;;;5.80;99.90;;;;;;6159773;23;20064;-68
2023/01/03 06:43:48;;;;;;;28.45;13.20;;;5.80;99.90;;;;;;6160101;23;20002;-68
2023/01/03 06:54:37;;;;;;;24.10;12.77;;;5.60;99.90;;;;;;6160434;23;20060;-68
2023/01/03 06:57:05;;;;;;;25.67;12.15;;;5.60;99.90;;;;;;6160503;23;20001;-68
2023/01/03 06:59:32;;;;;;;29.17;13.13;;;5.50;99.90;;;;;;6158521;23;20060;-68
2023/01/03 07:02:00;;;;;;;23.13;12.18;;;5.50;99.90;;;;;;6158388;23;20064;-68
2023/01/03 07:04:27;;;;;;;26.63;11.80;;;5.50;99.90;;;;;;6160027;23;20207;-68
2023/01/03 07:06:56;;;;;;;22.00;11.60;;;5.40;99.90;;;;;;6160472;23;20037;-68
2023/01/03 07:09:26;;;;;;;26.42;12.13;;;5.40;99.90;;;;;;6161793;23;20001;-68
2023/01/03 07:11:55;;;;;;;22.17;12.45;;;5.40;99.90;;;;;;6162468;23;20005;-68
2023/01/03 07:14:22;;;;;;;25.90;13.38;;;5.40;99.90;;;;;;6161855;23;20057;-68
2023/01/03 07:16:50;;;;;;;32.20;14.18;;;5.40;99.90;;;;;;6162014;23;20060;-68
2023/01/03 07:19:19;;;;;;;27.13;12.27;;;5.40;99.90;;;;;;6161644;23;20009;-68
2023/01/03 07:21:46;;;;;;;24.25;11.43;;;5.50;99.90;;;;;;6160362;23;20010;-68
2023/01/03 07:24:17;;;;;;;22.83;12.82;;;5.40;99.90;;;;;;6160892;23;20001;-68
2023/01/03 07:26:45;;;;;;;21.20;10.57;;;5.40;99.90;;;;;;6162318;23;20053;-68
2023/01/03 07:29:12;;;;;;;24.02;11.90;;;5.40;99.90;;;;;;6160433;23;20363;-68
2023/01/03 07:31:40;;;;;;;25.50;12.38;;;5.30;99.90;;;;;;6161289;23;20024;-68
2023/01/03 07:34:08;;;;;;;28.08;12.20;;;5.20;99.90;;;;;;6161531;23;20006;-68
2023/01/03 07:36:36;;;;;;;21.15;12.20;;;5.10;99.90;;;;;;6161930;23;20002;-68
2023/01/03 07:39:04;;;;;;;22.45;11.60;;;5.00;99.90;;;;;;6162778;23;20255;-68
2023/01/03 07:44:16;;;;;;;27.27;12.68;;;4.80;99.90;;;;;;6161918;23;20028;-68
2023/01/03 07:46:44;;;;;;;25.20;12.43;;;4.70;99.90;;;;;;6160141;23;20016;-68
2023/01/03 07:49:11;;;;;;;33.83;16.95;;;4.60;99.90;;;;;;6161825;23;20006;-68
2023/01/03 07:51:39;;;;;;;26.27;14.05;;;4.40;99.90;;;;;;6161438;23;20006;-68
2023/01/03 07:54:07;;;;;;;27.73;16.02;;;4.40;99.90;;;;;;6161432;23;20033;-68
2023/01/03 07:56:35;;;;;;;22.58;12.20;;;4.30;99.90;;;;;;6161429;23;20040;-68
2023/01/03 07:59:03;;;;;;;28.92;12.70;;;4.20;99.90;;;;;;6161555;23;20052;-68
2023/01/03 08:01:31;;;;;;;22.92;13.20;;;4.20;99.90;;;;;;6159862;23;20013;-68
2023/01/03 08:03:59;;;;;;;23.33;12.73;;;4.10;99.90;;;;;;6161354;23;20009;-68
2023/01/03 08:06:27;;;;;;;25.55;11.98;;;4.10;99.90;;;;;;6161177;23;20279;-68
2023/01/03 08:14:27;;;;;;;26.90;12.30;;;3.90;99.90;;;;;;6160376;23;20088;-68
2023/01/03 08:16:55;;;;;;;33.20;13.02;;;3.80;99.90;;;;;;6161467;23;20325;-68
2023/01/03 08:19:23;;;;;;;26.27;12.75;;;3.80;99.90;;;;;;6161173;23;20031;-68
2023/01/03 08:21:50;;;;;;;23.65;10.90;;;3.70;99.90;;;;;;6159750;23;20010;-68
2023/01/03 08:24:18;;;;;;;23.75;10.68;;;3.60;99.90;;;;;;6159759;23;20088;-68
2023/01/03 08:26:46;;;;;;;21.65;10.43;;;3.60;99.90;;;;;;6161136;23;20001;-72
2023/01/03 08:29:14;;;;;;;24.02;11.50;;;3.50;99.90;;;;;;6160201;23;19998;-72
2023/01/03 08:31:48;;;;;;;23.58;10.38;;;3.40;99.90;;;;;;6160842;23;20045;-72
2023/01/03 08:34:17;;;;;;;20.20;10.75;;;3.40;99.90;;;;;;6160924;23;20061;-72
2023/01/03 08:36:52;;;;;;;23.20;11.25;;;3.40;99.90;;;;;;6161562;23;20001;-73
2023/01/03 08:39:26;;;;;;;21.50;8.25;;;3.30;99.90;;;;;;6161049;23;20009;-73
2023/01/03 08:42:00;;;;;;;24.63;11.68;;;3.30;99.90;;;;;;6160746;23;20388;-72
2023/01/03 08:44:28;;;;;;;23.33;11.60;;;3.30;99.90;;;;;;6161104;23;20012;-74
2023/01/03 08:46:57;;;;;;;24.83;11.65;;;3.30;99.90;;;;;;6160401;23;19998;-73
2023/01/03 08:49:25;;;;;;;28.98;12.68;;;3.30;99.90;;;;;;6160828;23;19998;-73
2023/01/03 08:51:53;;;;;;;29.65;13.10;;;3.30;99.90;;;;;;6161213;23;20005;-72
2023/01/03 08:54:21;;;;;;;28.75;12.27;;;3.40;99.90;;;;;;6160998;23;20393;-73
2023/01/03 08:56:48;;;;;;;27.40;12.70;;;3.40;99.90;;;;;;6161178;23;20006;-72
2023/01/03 08:59:16;;;;;;;25.65;12.32;;;3.40;99.90;;;;;;6161534;23;20005;-72
2023/01/03 09:01:43;;;;;;;30.48;13.00;;;3.40;99.90;;;;;;6159364;23;20006;-72
2023/01/03 09:04:10;;;;;;;27.38;12.30;;;3.40;99.90;;;;;;6160872;23;20001;-85
2023/01/03 09:06:39;;;;;;;25.15;12.23;;;3.40;99.90;;;;;;6160674;23;20010;-72
2023/01/03 09:09:07;;;;;;;30.52;12.25;;;3.50;99.90;;;;;;6160710;23;20005;-72
2023/01/03 09:11:35;;;;;;;26.77;10.93;;;3.50;99.90;;;;;;6161006;23;20008;-76
2023/01/03 09:14:03;;;;;;;22.45;11.25;;;3.60;99.90;;;;;;6161168;23;20267;-72
2023/01/03 09:16:31;;;;;;;26.73;12.45;;;3.60;99.90;;;;;;6160537;23;20012;-72
2023/01/03 09:19:01;;;;;;;28.00;11.18;;;3.60;99.90;;;;;;6159289;23;20100;-73
2023/01/03 09:21:29;;;;;;;21.85;10.57;;;3.60;99.90;;;;;;6160163;23;20084;-72
2023/01/03 09:23:57;;;;;;;19.23;9.88;;;3.70;99.90;;;;;;6160676;23;20076;-72
2023/01/03 09:26:24;;;;;;;18.63;9.13;;;3.70;99.90;;;;;;6160044;23;20006;-72
2023/01/03 09:28:52;;;;;;;18.70;8.88;;;3.70;99.90;;;;;;6160046;23;20008;-72
2023/01/03 09:31:19;;;;;;;16.67;9.68;;;3.80;99.90;;;;;;6160296;23;20071;-72
2023/01/03 09:33:47;;;;;;;16.83;8.38;;;3.80;99.90;;;;;;6161345;23;20001;-72
2023/01/03 09:36:14;;;;;;;19.90;9.40;;;3.90;99.90;;;;;;6160270;23;20098;-72
2023/01/03 09:38:41;;;;;;;17.55;8.48;;;4.10;99.90;;;;;;6160703;23;20001;-72
2023/01/03 09:41:19;;;;;;;17.67;8.15;;;4.20;99.90;;;;;;6160341;23;20006;-72
2023/01/03 09:43:49;;;;;;;23.17;8.05;;;4.30;99.90;;;;;;6160431;23;20008;-72
2023/01/03 09:46:23;;;;;;;18.70;8.20;;;4.40;99.90;;;;;;6160708;23;20004;-73
2023/01/03 09:48:52;;;;;;;19.52;8.32;;;4.40;99.90;;;;;;6160260;23;20318;-72
2023/01/03 10:03:44;;;;;;;17.63;7.55;;;4.70;99.90;;;;;;6160581;23;20012;-73
2023/01/03 10:06:14;;;;;;;15.23;7.17;;;4.70;99.90;;;;;;6160217;23;19997;-72
2023/01/03 10:09:01;;;;;;;13.50;7.13;;;4.80;99.90;;;;;;6161048;23;20008;-73
2023/01/03 10:11:44;;;;;;;15.38;6.95;;;4.80;99.90;;;;;;6160137;23;20271;-72
2023/01/03 10:14:39;;;;;;;17.17;7.07;;;4.90;99.90;;;;;;6160842;23;20005;-72
2023/01/03 10:17:24;;;;;;;13.70;6.90;;;4.90;99.90;;;;;;6158981;23;20005;-75
2023/01/03 10:20:14;;;;;;;12.43;6.18;;;5.00;99.90;;;;;;6160689;23;20101;-72
2023/01/03 10:22:44;;;;;;;11.48;6.43;;;5.20;99.90;;;;;;6159929;23;20028;-72
2023/01/03 10:25:20;;;;;;;17.02;6.57;;;5.40;99.90;;;;;;6183539;23;20449;-72
2023/01/03 10:27:50;;;;;;;10.15;5.63;;;5.60;99.90;;;;;;6160518;23;20001;-72
2023/01/03 10:30:26;;;;;;;12.93;5.70;;;5.70;99.90;;;;;;6160336;23;20025;-72
2023/01/03 10:33:05;;;;;;;10.13;5.45;;;5.70;99.90;;;;;;6160434;23;20002;-72
2023/01/03 10:35:36;;;;;;;17.65;8.20;;;5.80;99.90;;;;;;6160208;23;20080;-72
2023/01/03 10:38:03;;;;;;;12.63;6.05;;;5.80;99.90;;;;;;6159998;23;20429;-72
2023/01/03 10:40:54;;;;;;;12.18;5.80;;;5.80;99.90;;;;;;6160573;23;20359;-72
2023/01/03 10:43:33;;;;;;;14.50;5.38;;;5.80;99.90;;;;;;6183356;23;20017;-72
2023/01/03 10:46:04;;;;;;;11.98;4.70;;;5.80;99.90;;;;;;6160547;23;20366;-72
2023/01/03 10:48:40;;;;;;;9.77;4.40;;;5.80;99.90;;;;;;6161069;23;20251;-72
2023/01/03 10:51:42;;;;;;;13.43;5.93;;;5.80;99.90;;;;;;6158380;23;20410;-72
2023/01/03 10:54:19;;;;;;;13.68;5.90;;;5.80;99.90;;;;;;6159938;23;19998;-72
2023/01/03 10:56:48;;;;;;;12.93;5.72;;;5.90;99.90;;;;;;6159784;23;20367;-72
2023/01/03 10:59:26;;;;;;;13.65;6.57;;;5.90;99.90;;;;;;6159873;23;19997;-72
2023/01/03 11:02:07;;;;;;;9.52;4.60;;;6.00;99.90;;;;;;6159755;23;20001;-72
2023/01/03 11:04:36;;;;;;;8.20;3.53;;;6.00;99.90;;;;;;6159724;23;20001;-72
2023/01/03 11:07:13;;;;;;;8.93;4.25;;;6.00;99.90;;;;;;6159725;23;20081;-72
2023/01/03 11:09:53;;;;;;;9.52;3.55;;;6.00;99.90;;;;;;6160691;23;20006;-72
2023/01/03 11:12:34;;;;;;;10.50;4.65;;;6.10;99.90;;;;;;6160017;23;20002;-72
2023/01/03 11:15:15;;;;;;;6.63;3.25;;;6.10;99.90;;;;;;6158418;23;20326;-72
2023/01/03 11:18:00;;;;;;;9.95;3.38;;;6.10;99.90;;;;;;6159707;23;20279;-72
2023/01/03 11:21:13;;;;;;;6.32;3.53;;;6.20;99.90;;;;;;6159666;23;20010;-72
2023/01/03 11:23:57;;;;;;;7.80;3.45;;;6.20;99.90;;;;;;6154770;23;20013;-72
2023/01/03 11:26:58;;;;;;;7.45;2.55;;;6.30;99.90;;;;;;6160345;23;20029;-72
2023/01/03 11:29:38;;;;;;;14.32;3.75;;;6.30;99.90;;;;;;6160398;23;20006;-71
2023/01/03 11:32:27;;;;;;;7.80;2.80;;;6.40;99.90;;;;;;6131041;23;20033;-72
2023/01/03 11:35:12;;;;;;;10.00;3.05;;;6.40;99.90;;;;;;6130064;23;20059;-71
2023/01/03 11:38:05;;;;;;;7.33;2.60;;;6.40;99.90;;;;;;6130128;23;20065;-72
2023/01/03 11:41:02;;;;;;;7.38;2.70;;;6.50;99.90;;;;;;6130454;23;20002;-72
2023/01/03 11:43:50;;;;;;;9.07;2.60;;;6.50;99.90;;;;;;6130352;23;20279;-71
2023/01/03 11:46:45;;;;;;;7.03;2.35;;;6.60;99.90;;;;;;6130071;23;20072;-71
2023/01/03 11:49:27;;;;;;;5.25;2.00;;;6.60;99.90;;;;;;6130306;23;20012;-71
2023/01/03 11:52:25;;;;;;;6.72;3.25;;;6.70;99.90;;;;;;6131915;23;20376;-71
2023/01/03 11:55:14;;;;;;;6.75;2.72;;;6.80;99.90;;;;;;6106137;23;20030;-71
2023/01/03 11:58:22;;;;;;;4.95;2.50;;;6.80;99.90;;;;;;6131787;23;20010;-71
2023/01/03 12:01:19;;;;;;;8.55;3.78;;;6.90;99.90;;;;;;6132083;23;20072;-71
2023/01/03 12:04:03;;;;;;;6.15;2.40;;;7.00;99.90;;;;;;6132045;23;19998;-71
2023/01/03 12:06:41;;;;;;;5.07;2.30;;;7.10;99.90;;;;;;6132365;23;20002;-72
2023/01/03 12:09:19;;;;;;;5.32;2.22;;;7.20;99.90;;;;;;6132451;23;20002;-71
2023/01/03 12:11:49;;;;;;;5.25;2.08;;;7.20;99.90;;;;;;6132763;23;20268;-71
2023/01/03 12:14:29;;;;;;;5.43;2.65;;;7.30;99.90;;;;;;6131583;23;20006;-71
2023/01/03 12:17:20;;;;;;;6.60;2.00;;;7.40;99.90;;;;;;6131604;23;20081;-72
2023/01/03 12:20:09;;;;;;;6.15;2.15;;;7.50;99.90;;;;;;6131567;23;20084;-72
2023/01/03 12:22:48;;;;;;;7.30;2.35;;;7.60;99.90;;;;;;6131736;23;20012;-71
2023/01/03 12:25:30;;;;;;;7.88;2.10;;;7.70;99.90;;;;;;6105823;23;20032;-71
2023/01/03 12:28:10;;;;;;;4.15;2.03;;;7.70;99.90;;;;;;6106066;23;20080;-71
2023/01/03 12:30:53;;;;;;;5.57;1.85;;;7.70;99.90;;;;;;6144817;23;20013;-71
2023/01/03 12:33:32;;;;;;;3.88;2.03;;;7.80;99.90;;;;;;6161127;23;20002;-70
2023/01/03 12:36:07;;;;;;;5.70;2.00;;;7.80;99.90;;;;;;6184458;23;20012;-70
2023/01/03 12:38:44;;;;;;;4.53;2.15;;;7.80;99.90;;;;;;6161945;23;19998;-71
2023/01/03 12:41:55;;;;;;;5.20;1.83;;;7.80;99.90;;;;;;6160938;23;20002;-71
2023/01/03 12:44:54;;;;;;;6.88;1.83;;;7.80;99.90;;;;;;6116432;23;20006;-71
2023/01/03 12:47:39;;;;;;;21.48;7.43;;;7.80;99.90;;;;;;6159327;23;20028;-71
2023/01/03 12:50:13;;;;;;;33.90;10.90;;;7.90;99.90;;;;;;6160812;23;20001;-71
2023/01/03 12:52:42;;;;;;;8.90;3.63;;;8.10;99.90;;;;;;6160800;23;20009;-71
2023/01/03 12:55:25;;;;;;;11.90;3.92;;;8.20;99.90;;;;;;6160754;23;20009;-71
2023/01/03 12:58:18;;;;;;;8.77;3.10;;;8.30;99.90;;;;;;6160824;23;20032;-73
2023/01/03 13:01:14;;;;;;;13.70;4.30;;;8.40;99.90;;;;;;6160533;23;20005;-71
2023/01/03 13:03:49;;;;;;;17.17;4.72;;;8.30;99.90;;;;;;6160636;23;20010;-71
2023/01/03 13:06:33;;;;;;;7.97;3.23;;;8.30;99.90;;;;;;6161357;23;19997;-72
2023/01/03 13:09:25;;;;;;;8.50;2.72;;;8.30;99.90;;;;;;6160861;23;20245;-72
2023/01/03 13:11:59;;;;;;;4.35;1.58;;;8.40;99.90;;;;;;6161031;23;20062;-72
2023/01/03 13:14:28;;;;;;;3.60;2.08;;;8.40;99.90;;;;;;6160699;23;20001;-72
2023/01/03 13:17:14;;;;;;;4.50;2.03;;;8.40;99.90;;;;;;6160653;23;20002;-71
2023/01/03 13:19:52;;;;;;;10.25;1.83;;;8.40;99.90;;;;;;6160404;23;20080;-72
2023/01/03 13:22:40;;;;;;;4.13;1.60;;;8.50;99.90;;;;;;6160725;23;20397;-72
2023/01/03 13:25:26;;;;;;;4.80;2.30;;;8.60;99.90;;;;;;6159207;23;20080;-72
2023/01/03 13:27:58;;;;;;;3.45;2.15;;;8.70;99.90;;;;;;6161266;23;20005;-72
2023/01/03 13:30:35;;;;;;;4.57;1.60;;;8.70;99.90;;;;;;6160852;23;20340;-72
2023/01/03 13:33:12;;;;;;;5.38;1.63;;;8.60;99.90;;;;;;6161354;23;20009;-72
2023/01/03 13:35:46;;;;;;;5.10;1.50;;;8.50;99.90;;;;;;6161106;23;20097;-72
2023/01/03 13:38:19;;;;;;;4.53;1.80;;;8.50;99.90;;;;;;6161226;23;20033;-72
2023/01/03 13:40:53;;;;;;;5.88;2.58;;;8.40;99.90;;;;;;6161335;23;20071;-72
2023/01/03 13:43:33;;;;;;;5.53;1.60;;;8.40;99.90;;;;;;6159330;23;20082;-72
2023/01/03 13:46:21;;;;;;;3.60;1.70;;;8.30;99.90;;;;;;6161074;23;20008;-72
2023/01/03 13:48:58;;;;;;;2.45;1.35;;;8.30;99.90;;;;;;6160770;23;20048;-72
2023/01/03 13:51:47;;;;;;;4.75;1.70;;;8.30;99.90;;;;;;6158976;23;20278;-72
2023/01/03 13:54:18;;;;;;;5.10;2.28;;;8.30;99.90;;;;;;6160367;23;20009;-72
2023/01/03 13:56:51;;;;;;;4.85;1.67;;;8.30;99.90;;;;;;6161005;23;20241;-72
2023/01/03 13:59:41;;;;;;;3.42;1.45;;;8.20;99.90;;;;;;6161007;23;20010;-72
2023/01/03 14:02:32;;;;;;;4.47;1.77;;;8.20;99.90;;;;;;6161034;23;20350;-72
2023/01/03 14:05:14;;;;;;;3.42;1.98;;;8.20;99.90;;;;;;6160179;23;19998;-71
2023/01/03 14:07:55;;;;;;;5.15;2.00;;;8.20;99.90;;;;;;6161232;23;20006;-72
2023/01/03 14:10:50;;;;;;;4.28;1.60;;;8.20;99.90;;;;;;6160911;23;20002;-72
2023/01/03 14:13:41;;;;;;;4.43;1.90;;;8.20;99.90;;;;;;6160889;23;20017;-71
2023/01/03 14:16:31;;;;;;;6.30;2.40;;;8.10;99.90;;;;;;6160162;23;20002;-71
2023/01/03 14:19:12;;;;;;;5.32;2.30;;;8.10;99.90;;;;;;6160474;23;20032;-71
2023/01/03 14:22:06;;;;;;;3.25;1.98;;;8.10;99.90;;;;;;6159952;23;20378;-71
2023/01/03 14:24:34;;;;;;;15.07;5.35;;;8.10;99.90;;;;;;6160057;23;20005;-72
2023/01/03 14:27:15;;;;;;;33.00;10.73;;;8.10;99.90;;;;;;6161098;23;20285;-72
2023/01/03 14:29:48;;;;;;;11.45;4.80;;;8.10;99.90;;;;;;6160183;23;20299;-72